Terminal Aerodrome Forecast
Issued by NWS Wilmington, OH

Current Version | Previous Version | Text Only | Print | Product List | Glossary Off
Versions: 1 2 3 4 5 6 7 8 9 10 11 12 13 14 15 16 17 18 19 20 21 22 23 24 25 26

000
FTUS41 KILN 210800 AAB
TAFCVG
TAF AMD
KCVG 210802Z 2108/2212 00000KT P6SM OVC018
     FM210900 00000KT P6SM FEW018
      TEMPO 2109/2113 3SM BR
     FM211400 11006KT P6SM FEW022 SCT250
     FM220900 12006KT P6SM SCT012 BKN035=

USA.gov is the U.S. government's official web portal to all federal, state and local government web resources and services.